createdAt,value
2022-11-25T00:00:33.329Z,55.90
2022-11-25T00:02:35.258Z,55.80
2022-11-25T00:04:37.396Z,55.90
2022-11-25T00:06:39.638Z,55.90
2022-11-25T00:08:42.253Z,55.80
2022-11-25T00:10:44.733Z,55.80
2022-11-25T00:12:46.458Z,55.80
2022-11-25T00:14:48.232Z,55.80
2022-11-25T00:16:50.090Z,55.80
2022-11-25T00:18:52.931Z,55.80
2022-11-25T00:20:54.661Z,55.80
2022-11-25T00:22:56.496Z,55.80
2022-11-25T00:24:58.220Z,55.80
2022-11-25T00:27:00.007Z,55.80
2022-11-25T00:29:03.291Z,55.80
2022-11-25T00:31:08.721Z,55.80
2022-11-25T00:33:10.427Z,55.80
2022-11-25T00:35:12.299Z,55.80
2022-11-25T00:37:15.297Z,55.80
2022-11-25T00:39:17.803Z,55.80
2022-11-25T00:41:19.507Z,55.80
2022-11-25T00:43:21.311Z,55.80
2022-11-25T00:45:23.982Z,55.70
2022-11-25T00:47:25.815Z,55.70
2022-11-25T00:49:27.549Z,55.80
2022-11-25T00:51:29.381Z,55.80
2022-11-25T00:53:31.295Z,55.80
2022-11-25T00:55:33.115Z,55.80
2022-11-25T00:57:34.871Z,55.70
2022-11-25T00:59:37.363Z,55.70
2022-11-25T01:01:39.166Z,55.70
2022-11-25T01:03:41.117Z,55.70
2022-11-25T01:05:42.845Z,55.70
2022-11-25T01:07:45.821Z,55.70
2022-11-25T01:09:48.433Z,55.70
2022-11-25T01:11:50.894Z,55.70
2022-11-25T01:13:56.671Z,55.70
2022-11-25T01:16:03.447Z,55.70
2022-11-25T01:18:05.251Z,55.70
2022-11-25T01:20:08.138Z,55.80
2022-11-25T01:22:09.992Z,55.70
2022-11-25T01:24:12.768Z,55.80
2022-11-25T01:26:15.699Z,55.70
2022-11-25T01:28:19.300Z,55.70
2022-11-25T01:30:21.011Z,55.70
2022-11-25T01:32:22.831Z,55.70
2022-11-25T01:34:25.676Z,55.70
2022-11-25T01:36:27.724Z,55.70
2022-11-25T01:38:29.991Z,55.70
2022-11-25T01:40:31.804Z,55.70
2022-11-25T01:42:33.526Z,55.70
2022-11-25T01:44:36.236Z,55.70
2022-11-25T01:46:56.817Z,55.70
2022-11-25T01:49:03.571Z,55.70
2022-11-25T01:51:05.531Z,55.70
2022-11-25T01:53:07.992Z,55.70
2022-11-25T01:55:14.499Z,55.70
2022-11-25T01:57:21.271Z,55.70
2022-11-25T01:59:23.419Z,55.70
2022-11-25T02:01:25.468Z,55.70
2022-11-25T02:03:33.718Z,55.70
2022-11-25T02:05:38.764Z,55.80
2022-11-25T02:07:41.654Z,55.70
2022-11-25T02:09:43.632Z,55.70
2022-11-25T02:11:45.404Z,55.60
2022-11-25T02:13:48.734Z,55.50
2022-11-25T02:15:50.562Z,55.50
2022-11-25T02:17:52.506Z,55.50
2022-11-25T02:20:00.302Z,55.40
2022-11-25T02:22:06.147Z,55.30
2022-11-25T02:24:15.268Z,55.40
2022-11-25T02:26:18.364Z,55.30
2022-11-25T02:28:20.035Z,55.40
2022-11-25T02:30:21.876Z,55.40
2022-11-25T02:32:24.499Z,55.40
2022-11-25T02:34:26.281Z,55.40
2022-11-25T02:36:28.006Z,55.40
2022-11-25T02:38:39.646Z,55.40
2022-11-25T02:40:51.391Z,55.40
2022-11-25T02:42:54.822Z,55.40
2022-11-25T02:44:56.585Z,55.40
2022-11-25T02:46:59.287Z,55.40
2022-11-25T02:49:08.846Z,55.40
2022-11-25T02:51:13.643Z,55.40
2022-11-25T02:53:15.717Z,55.40
2022-11-25T02:55:17.652Z,55.40
2022-11-25T02:57:20.739Z,55.40
2022-11-25T02:59:22.594Z,55.30
2022-11-25T03:01:24.394Z,55.30
2022-11-25T03:03:26.312Z,55.30
2022-11-25T03:05:28.288Z,55.30
2022-11-25T03:07:30.103Z,55.30
2022-11-25T03:09:34.331Z,55.30
2022-11-25T03:11:36.232Z,55.30
2022-11-25T03:13:38.584Z,55.30
2022-11-25T03:15:40.620Z,55.90
2022-11-25T03:17:42.368Z,55.30
2022-11-25T03:19:44.760Z,55.30
2022-11-25T03:21:46.842Z,55.30
2022-11-25T03:23:48.688Z,55.30
2022-11-25T03:25:52.328Z,55.30
2022-11-25T03:27:54.246Z,55.30
2022-11-25T03:29:56.085Z,55.30
2022-11-25T03:31:58.220Z,55.30
2022-11-25T03:34:00.134Z,55.30
2022-11-25T03:36:01.936Z,55.30
2022-11-25T03:38:03.732Z,55.30
2022-11-25T03:40:09.902Z,55.30
2022-11-25T03:42:11.864Z,55.30
2022-11-25T03:44:13.694Z,55.30
2022-11-25T03:46:16.472Z,55.30
2022-11-25T03:48:18.582Z,55.30
2022-11-25T03:50:20.403Z,55.30
2022-11-25T03:52:23.174Z,55.30
2022-11-25T03:54:25.228Z,55.30
2022-11-25T03:56:56.456Z,55.30
2022-11-25T03:58:58.324Z,55.20
2022-11-25T04:01:03.113Z,55.30
2022-11-25T04:03:04.988Z,55.30
2022-11-25T04:05:08.140Z,55.20
2022-11-25T04:07:09.991Z,55.20
2022-11-25T04:09:11.856Z,55.20
2022-11-25T04:11:13.964Z,55.20
2022-11-25T04:13:19.208Z,55.10
2022-11-25T04:15:21.048Z,55.10
2022-11-25T04:17:28.089Z,55.10
2022-11-25T04:19:31.252Z,55.10
2022-11-25T04:21:33.127Z,55.00
2022-11-25T04:23:35.280Z,55.10
2022-11-25T04:25:40.958Z,55.10
2022-11-25T04:27:47.620Z,55.00
2022-11-25T04:29:53.128Z,55.10
2022-11-25T04:31:56.387Z,55.10
2022-11-25T04:33:58.207Z,55.00
2022-11-25T04:36:00.079Z,55.00
2022-11-25T04:38:02.338Z,55.00
2022-11-25T04:40:08.561Z,55.00
2022-11-25T04:42:10.348Z,55.00
2022-11-25T04:44:13.034Z,55.00
2022-11-25T04:46:20.263Z,55.00
2022-11-25T04:48:24.945Z,55.10
2022-11-25T04:50:26.772Z,55.00
2022-11-25T04:52:40.023Z,55.00
2022-11-25T04:54:42.387Z,55.00
2022-11-25T04:56:44.250Z,55.00
2022-11-25T04:58:46.159Z,55.00
2022-11-25T05:00:47.969Z,55.00
2022-11-25T05:02:50.172Z,55.00
2022-11-25T05:04:56.169Z,55.00
2022-11-25T05:06:58.815Z,55.00
2022-11-25T05:09:00.962Z,54.90
2022-11-25T05:11:03.424Z,55.00
2022-11-25T05:13:05.300Z,54.90
2022-11-25T05:15:07.351Z,54.80
2022-11-25T05:17:18.900Z,54.80
2022-11-25T05:19:20.647Z,55.30
2022-11-25T05:21:23.445Z,54.60
2022-11-25T05:23:25.186Z,54.80
2022-11-25T05:25:27.068Z,54.70
2022-11-25T05:27:49.083Z,54.70
2022-11-25T05:29:55.666Z,54.70
2022-11-25T05:31:59.126Z,54.70
2022-11-25T05:34:02.154Z,54.70
2022-11-25T05:36:05.497Z,54.80
2022-11-25T05:38:19.378Z,54.80
2022-11-25T05:40:21.545Z,54.80
2022-11-25T05:42:42.992Z,54.70
2022-11-25T05:44:44.742Z,54.80
2022-11-25T05:46:46.892Z,54.70
2022-11-25T05:48:48.714Z,54.80
2022-11-25T05:50:50.823Z,54.70
2022-11-25T05:52:55.778Z,54.70
2022-11-25T05:54:58.410Z,54.70
2022-11-25T05:57:01.363Z,54.70
2022-11-25T05:59:03.421Z,54.80
2022-11-25T06:01:17.617Z,54.70
2022-11-25T06:03:23.613Z,54.70
2022-11-25T06:05:25.490Z,54.70
2022-11-25T06:07:27.352Z,54.70
2022-11-25T06:09:29.496Z,54.70
2022-11-25T06:11:31.731Z,54.60
2022-11-25T06:13:33.823Z,54.60
2022-11-25T06:15:40.503Z,54.60
2022-11-25T06:17:42.266Z,54.60
2022-11-25T06:19:53.065Z,54.50
2022-11-25T06:21:54.920Z,54.50
2022-11-25T06:23:56.886Z,54.60
2022-11-25T06:26:10.648Z,54.60
2022-11-25T06:28:13.518Z,54.60
2022-11-25T06:30:19.604Z,54.60
2022-11-25T06:32:37.366Z,54.60
2022-11-25T06:34:51.123Z,54.60
2022-11-25T06:37:22.880Z,54.60
2022-11-25T06:39:24.791Z,54.60
2022-11-25T06:41:26.515Z,54.60
2022-11-25T06:43:28.471Z,54.60
2022-11-25T06:45:30.184Z,54.60
2022-11-25T06:47:32.127Z,54.50
2022-11-25T06:49:33.858Z,55.10
2022-11-25T06:51:35.691Z,54.60
2022-11-25T06:53:37.667Z,54.50
2022-11-25T06:55:39.493Z,54.50
2022-11-25T06:57:41.241Z,54.50
2022-11-25T06:59:43.290Z,54.50
2022-11-25T07:01:45.095Z,54.50
2022-11-25T07:03:48.954Z,54.50
2022-11-25T07:05:50.779Z,54.60
2022-11-25T07:07:52.762Z,54.50
2022-11-25T07:09:54.593Z,54.50
2022-11-25T07:11:59.315Z,54.50
2022-11-25T07:14:02.405Z,54.40
2022-11-25T07:16:05.187Z,54.40
2022-11-25T07:18:06.980Z,54.40
2022-11-25T07:20:09.096Z,54.30
2022-11-25T07:22:10.845Z,54.40
2022-11-25T07:24:14.215Z,54.40
2022-11-25T07:26:17.937Z,54.40
2022-11-25T07:28:19.765Z,54.40
2022-11-25T07:32:43.288Z,54.40
2022-11-25T07:34:45.087Z,54.40
2022-11-25T07:36:47.805Z,54.30
2022-11-25T07:38:49.528Z,54.50
2022-11-25T07:40:52.208Z,54.40
2022-11-25T07:42:54.363Z,54.40
2022-11-25T07:44:56.423Z,54.40
2022-11-25T07:47:19.779Z,54.40
2022-11-25T07:49:22.799Z,54.40
2022-11-25T07:51:26.399Z,54.40
2022-11-25T07:53:28.700Z,54.40
2022-11-25T07:55:31.139Z,54.40
2022-11-25T07:57:33.067Z,54.40
2022-11-25T07:59:35.050Z,54.40
2022-11-25T08:01:37.472Z,54.40
2022-11-25T08:03:40.310Z,54.40
2022-11-25T08:05:42.061Z,54.50
2022-11-25T08:07:44.185Z,54.50
2022-11-25T08:09:46.076Z,54.50
2022-11-25T08:11:48.142Z,54.50
2022-11-25T08:13:50.249Z,54.50
2022-11-25T08:15:52.128Z,54.50
2022-11-25T08:17:53.949Z,54.50
2022-11-25T08:19:55.729Z,54.60
2022-11-25T08:21:57.525Z,54.70
2022-11-25T08:23:59.276Z,54.60
2022-11-25T08:26:04.996Z,54.70
2022-11-25T08:28:07.288Z,54.60
2022-11-25T08:30:09.399Z,54.60
2022-11-25T08:32:12.065Z,54.50
2022-11-25T08:34:21.384Z,54.50
2022-11-25T08:36:25.521Z,54.40
2022-11-25T08:38:27.861Z,54.40
2022-11-25T08:40:29.663Z,54.40
2022-11-25T08:42:32.052Z,54.40
2022-11-25T08:44:35.262Z,54.40
2022-11-25T08:46:37.408Z,54.50
2022-11-25T08:48:39.764Z,54.40
2022-11-25T08:50:45.228Z,54.40
2022-11-25T08:52:47.083Z,54.30
2022-11-25T08:54:49.166Z,54.80
2022-11-25T08:56:50.935Z,54.20
2022-11-25T08:58:53.319Z,54.10
2022-11-25T09:00:55.070Z,54.10
2022-11-25T09:02:56.997Z,54.20
2022-11-25T09:04:58.733Z,54.10
2022-11-25T09:07:00.993Z,54.10
2022-11-25T09:09:02.860Z,54.10
2022-11-25T09:11:04.779Z,54.00
2022-11-25T09:13:07.141Z,53.90
2022-11-25T09:15:09.405Z,53.90
2022-11-25T09:17:11.934Z,53.00
2022-11-25T09:19:16.914Z,49.30
2022-11-25T09:21:18.758Z,49.40
2022-11-25T09:23:20.695Z,49.80
2022-11-25T09:25:22.791Z,49.80
2022-11-25T09:27:24.561Z,50.30
2022-11-25T09:29:26.324Z,50.60
2022-11-25T09:31:28.181Z,51.10
2022-11-25T09:33:29.924Z,51.90
2022-11-25T09:35:31.744Z,52.10
2022-11-25T09:37:33.469Z,52.10
2022-11-25T09:39:35.904Z,52.00
2022-11-25T09:42:09.788Z,52.20
2022-11-25T09:44:26.989Z,52.20
2022-11-25T09:46:34.394Z,52.30
2022-11-25T09:48:39.391Z,52.30
2022-11-25T09:50:50.191Z,52.30
2022-11-25T09:52:52.017Z,52.40
2022-11-25T09:54:57.027Z,52.60
2022-11-25T09:57:13.925Z,52.70
2022-11-25T09:59:20.900Z,52.70
2022-11-25T10:01:24.749Z,52.80
2022-11-25T10:03:41.579Z,52.90
2022-11-25T10:05:46.420Z,52.90
2022-11-25T10:07:51.340Z,52.80
2022-11-25T10:09:53.127Z,52.80
2022-11-25T10:11:56.767Z,52.80
2022-11-25T10:14:13.570Z,52.80
2022-11-25T10:16:30.406Z,52.70
2022-11-25T10:18:32.549Z,52.80
2022-11-25T10:20:36.606Z,52.80
2022-11-25T10:22:42.267Z,52.80
2022-11-25T10:24:44.213Z,52.80
2022-11-25T10:26:49.176Z,52.80
2022-11-25T10:28:56.832Z,52.80
2022-11-25T10:31:10.174Z,53.00
2022-11-25T10:33:14.770Z,53.00
2022-11-25T10:35:30.168Z,53.00
2022-11-25T10:37:35.357Z,53.00
2022-11-25T10:39:37.171Z,53.00
2022-11-25T10:41:57.323Z,52.70
2022-11-25T10:43:59.115Z,51.50
2022-11-25T10:46:10.278Z,52.80
2022-11-25T10:48:23.042Z,53.00
2022-11-25T10:50:24.829Z,52.90
2022-11-25T10:52:28.269Z,53.00
2022-11-25T10:54:29.990Z,53.00
2022-11-25T10:56:41.069Z,53.00
2022-11-25T10:58:42.796Z,53.00
2022-11-25T11:00:44.603Z,53.30
2022-11-25T11:02:46.408Z,53.40
2022-11-25T11:04:53.369Z,53.60
2022-11-25T11:07:06.584Z,53.60
2022-11-25T11:09:26.785Z,53.80
2022-11-25T11:11:28.845Z,53.80
2022-11-25T11:13:30.611Z,53.80
2022-11-25T11:15:41.361Z,53.70
2022-11-25T11:17:43.292Z,53.70
2022-11-25T11:19:59.547Z,53.80
2022-11-25T11:22:17.699Z,53.90
2022-11-25T11:24:37.190Z,53.90
2022-11-25T11:26:39.224Z,53.80
2022-11-25T11:28:41.305Z,53.80
2022-11-25T11:30:53.795Z,53.80
2022-11-25T11:32:57.510Z,53.80
2022-11-25T11:35:21.069Z,53.80
2022-11-25T11:37:22.743Z,53.90
2022-11-25T11:39:24.466Z,53.90
2022-11-25T11:41:26.193Z,53.80
2022-11-25T11:43:42.163Z,53.80
2022-11-25T11:45:43.875Z,53.80
2022-11-25T11:47:54.897Z,53.90
2022-11-25T11:50:05.739Z,53.90
2022-11-25T11:52:08.707Z,53.90
2022-11-25T11:54:15.109Z,54.50
2022-11-25T11:56:36.120Z,53.90
2022-11-25T11:58:56.916Z,53.90
2022-11-25T12:01:10.930Z,54.10
2022-11-25T12:03:19.112Z,54.00
2022-11-25T12:05:22.539Z,53.90
2022-11-25T12:07:31.657Z,53.80
2022-11-25T12:09:36.100Z,53.80
2022-11-25T12:11:43.864Z,53.80
2022-11-25T12:13:50.007Z,53.70
2022-11-25T12:15:54.902Z,53.60
2022-11-25T12:18:01.958Z,53.70
2022-11-25T12:20:07.320Z,53.80
2022-11-25T12:22:21.452Z,53.80
2022-11-25T12:24:23.174Z,53.90
2022-11-25T12:26:30.785Z,53.80
2022-11-25T12:28:43.381Z,53.80
2022-11-25T12:30:58.343Z,53.80
2022-11-25T12:33:03.644Z,53.70
2022-11-25T12:35:13.813Z,53.80
2022-11-25T12:37:21.371Z,53.60
2022-11-25T12:39:33.175Z,53.50
2022-11-25T12:41:40.909Z,53.50
2022-11-25T12:43:45.696Z,53.60
2022-11-25T12:45:50.240Z,53.30
2022-11-25T12:47:52.700Z,53.10
2022-11-25T12:49:55.120Z,53.50
2022-11-25T12:52:10.856Z,53.50
2022-11-25T12:54:18.366Z,53.50
2022-11-25T12:56:24.706Z,53.30
2022-11-25T12:58:36.295Z,53.40
2022-11-25T13:00:48.132Z,53.20
2022-11-25T13:02:52.664Z,53.20
2022-11-25T13:05:25.080Z,53.10
2022-11-25T13:07:26.688Z,53.10
2022-11-25T13:09:28.400Z,53.10
2022-11-25T13:11:39.551Z,53.10
2022-11-25T13:13:59.928Z,53.10
2022-11-25T13:16:05.822Z,53.00
2022-11-25T13:18:13.140Z,53.00
2022-11-25T13:20:27.311Z,53.00
2022-11-25T13:22:29.130Z,53.10
2022-11-25T13:24:41.571Z,53.00
2022-11-25T13:26:47.067Z,52.90
2022-11-25T13:28:49.826Z,53.00
2022-11-25T13:30:52.714Z,53.00
2022-11-25T13:32:54.551Z,53.10
2022-11-25T13:35:15.138Z,53.10
2022-11-25T13:37:36.829Z,53.20
2022-11-25T13:39:38.645Z,53.40
2022-11-25T13:41:43.931Z,53.20
2022-11-25T13:44:05.012Z,53.50
2022-11-25T13:46:06.874Z,53.40
2022-11-25T13:48:34.686Z,53.70
2022-11-25T13:51:09.052Z,53.90
2022-11-25T13:52:58.226Z,53.80
2022-11-25T13:55:00.697Z,53.70
2022-11-25T13:57:11.704Z,53.80
2022-11-25T13:59:13.590Z,53.80
2022-11-25T14:01:30.937Z,53.70
2022-11-25T14:06:18.841Z,53.80
2022-11-25T14:11:15.755Z,53.60
2022-11-25T14:13:37.824Z,53.60
2022-11-25T14:16:05.363Z,53.60
2022-11-25T14:18:42.969Z,53.70
2022-11-25T14:20:51.471Z,53.70
2022-11-25T14:23:08.202Z,53.60
2022-11-25T14:25:23.641Z,53.70
2022-11-25T14:27:27.554Z,53.70
2022-11-25T14:29:38.482Z,53.70
2022-11-25T14:32:07.389Z,53.70
2022-11-25T14:34:17.829Z,53.70
2022-11-25T14:36:22.569Z,53.70
2022-11-25T14:38:29.091Z,53.70
2022-11-25T14:40:43.300Z,53.70
2022-11-25T14:42:55.697Z,53.80
2022-11-25T14:44:59.460Z,53.80
2022-11-25T14:47:05.145Z,53.90
2022-11-25T14:49:30.711Z,53.80
2022-11-25T14:58:41.785Z,54.00
2022-11-25T15:00:52.258Z,54.00
2022-11-25T15:03:03.486Z,54.10
2022-11-25T15:05:17.172Z,54.10
2022-11-25T15:07:29.512Z,54.10
2022-11-25T15:09:43.555Z,54.10
2022-11-25T15:14:08.631Z,54.40
2022-11-25T15:16:22.753Z,54.30
2022-11-25T15:18:26.716Z,54.30
2022-11-25T15:22:54.787Z,54.50
2022-11-25T15:25:06.523Z,54.70
2022-11-25T15:27:15.643Z,54.90
2022-11-25T15:29:18.866Z,54.80
2022-11-25T15:31:21.190Z,54.90
2022-11-25T15:33:24.649Z,55.00
2022-11-25T15:35:26.944Z,55.00
2022-11-25T15:37:29.354Z,55.00
2022-11-25T15:39:31.126Z,55.00
2022-11-25T15:41:34.542Z,55.00
2022-11-25T15:43:37.726Z,55.00
2022-11-25T15:45:44.274Z,55.00
2022-11-25T15:47:46.272Z,55.10
2022-11-25T15:49:50.209Z,55.10
2022-11-25T15:52:05.940Z,55.20
2022-11-25T15:54:13.565Z,55.20
2022-11-25T15:56:18.082Z,55.80
2022-11-25T15:58:23.775Z,55.20
2022-11-25T16:00:25.576Z,55.30
2022-11-25T16:02:50.372Z,55.20
2022-11-25T16:04:52.193Z,55.30
2022-11-25T16:06:55.315Z,55.30
2022-11-25T16:08:58.879Z,57.20
2022-11-25T16:11:10.920Z,58.30
2022-11-25T16:13:22.722Z,58.50
2022-11-25T16:15:41.295Z,59.10
2022-11-25T16:17:43.207Z,60.50
2022-11-25T16:19:46.963Z,61.60
2022-11-25T16:21:53.182Z,61.20
2022-11-25T16:23:57.751Z,61.90
2022-11-25T16:26:04.817Z,61.70
2022-11-25T16:28:16.459Z,62.70
2022-11-25T16:30:19.261Z,61.50
2022-11-25T16:32:22.939Z,60.40
2022-11-25T16:34:24.686Z,59.50
2022-11-25T16:36:26.471Z,59.50
2022-11-25T16:38:28.196Z,59.30
2022-11-25T16:40:30.104Z,59.00
2022-11-25T16:42:32.469Z,58.80
2022-11-25T16:44:36.133Z,59.90
2022-11-25T16:46:37.859Z,58.10
2022-11-25T16:48:39.655Z,63.10
2022-11-25T16:50:41.423Z,63.60
2022-11-25T16:52:43.203Z,63.00
2022-11-25T16:54:45.452Z,60.90
2022-11-25T16:56:50.092Z,61.30
2022-11-25T16:58:51.871Z,59.70
2022-11-25T17:00:55.715Z,59.20
2022-11-25T17:02:57.445Z,61.30
2022-11-25T17:05:06.910Z,60.60
2022-11-25T17:07:31.632Z,59.90
2022-11-25T17:09:34.344Z,59.30
2022-11-25T17:11:46.894Z,59.60
2022-11-25T17:13:50.261Z,59.50
2022-11-25T17:15:52.397Z,59.40
2022-11-25T17:17:54.468Z,59.10
2022-11-25T17:19:56.527Z,59.30
2022-11-25T17:21:58.518Z,59.30
2022-11-25T17:24:01.568Z,59.30
2022-11-25T17:26:03.391Z,59.10
2022-11-25T17:28:05.255Z,59.40
2022-11-25T17:30:11.117Z,59.80
2022-11-25T17:32:13.701Z,59.70
2022-11-25T17:34:16.671Z,59.60
2022-11-25T17:36:18.627Z,59.70
2022-11-25T17:38:21.401Z,60.10
2022-11-25T17:40:23.165Z,60.00
2022-11-25T17:42:29.754Z,59.90
2022-11-25T17:44:31.592Z,59.80
2022-11-25T17:46:34.020Z,60.00
2022-11-25T17:48:35.722Z,60.10
2022-11-25T17:50:37.840Z,60.00
2022-11-25T17:52:39.583Z,60.20
2022-11-25T17:54:41.596Z,60.00
2022-11-25T17:56:50.724Z,60.10
2022-11-25T17:58:54.648Z,60.20
2022-11-25T18:00:56.412Z,60.10
2022-11-25T18:02:59.316Z,60.10
2022-11-25T18:05:01.363Z,60.30
2022-11-25T18:07:03.248Z,60.10
2022-11-25T18:09:05.001Z,60.20
2022-11-25T18:11:07.760Z,60.20
2022-11-25T18:13:10.168Z,60.40
2022-11-25T18:15:19.215Z,60.10
2022-11-25T18:17:21.002Z,60.10
2022-11-25T18:19:22.797Z,60.30
2022-11-25T18:21:24.527Z,60.20
2022-11-25T18:23:26.411Z,60.20
2022-11-25T18:25:31.843Z,60.10
2022-11-25T18:27:33.639Z,60.10
2022-11-25T18:29:35.373Z,60.00
2022-11-25T18:31:37.131Z,60.30
2022-11-25T18:33:38.882Z,60.00
2022-11-25T18:35:40.745Z,60.20
2022-11-25T18:37:44.267Z,60.10
2022-11-25T18:39:46.105Z,60.30
2022-11-25T18:41:49.627Z,60.20
2022-11-25T18:43:51.401Z,60.30
2022-11-25T18:45:53.820Z,60.40
2022-11-25T18:47:55.680Z,60.30
2022-11-25T18:49:58.471Z,60.20
2022-11-25T18:52:00.251Z,60.30
2022-11-25T18:54:01.980Z,60.40
2022-11-25T18:56:04.155Z,60.40
2022-11-25T18:58:24.943Z,60.40
2022-11-25T19:00:32.778Z,60.40
2022-11-25T19:02:35.113Z,60.40
2022-11-25T19:04:37.139Z,60.30
2022-11-25T19:06:38.979Z,60.30
2022-11-25T19:08:41.582Z,60.20
2022-11-25T19:10:44.337Z,60.30
2022-11-25T19:12:48.676Z,60.30
2022-11-25T19:14:50.445Z,60.30
2022-11-25T19:16:52.315Z,60.30
2022-11-25T19:18:54.096Z,60.30
2022-11-25T19:20:55.885Z,60.30
2022-11-25T19:23:01.181Z,60.20
2022-11-25T19:25:03.250Z,60.20
2022-11-25T19:27:05.039Z,60.10
2022-11-25T19:29:07.564Z,60.10
2022-11-25T19:31:10.358Z,60.10
2022-11-25T19:33:17.933Z,60.10
2022-11-25T19:35:24.608Z,60.20
2022-11-25T19:37:26.408Z,60.00
2022-11-25T19:39:28.177Z,60.10
2022-11-25T19:41:29.961Z,60.00
2022-11-25T19:43:31.665Z,60.00
2022-11-25T19:45:33.762Z,59.90
2022-11-25T19:47:35.606Z,59.90
2022-11-25T19:49:38.500Z,60.00
2022-11-25T19:51:40.290Z,60.00
2022-11-25T19:53:42.095Z,59.90
2022-11-25T19:55:44.229Z,59.80
2022-11-25T19:57:46.410Z,60.00
2022-11-25T19:59:48.437Z,59.90
2022-11-25T20:01:50.303Z,60.00
2022-11-25T20:03:52.087Z,59.90
2022-11-25T20:05:54.217Z,59.80
2022-11-25T20:07:56.010Z,59.80
2022-11-25T20:10:01.027Z,59.80
2022-11-25T20:12:14.952Z,59.70
2022-11-25T20:14:16.740Z,59.70
2022-11-25T20:16:23.005Z,59.70
2022-11-25T20:18:25.907Z,59.80
2022-11-25T20:20:29.079Z,59.80
2022-11-25T20:22:34.485Z,59.80
2022-11-25T20:24:36.545Z,59.80
2022-11-25T20:26:39.585Z,59.60
2022-11-25T20:28:41.283Z,59.60
2022-11-25T20:30:44.185Z,59.70
2022-11-25T20:32:46.189Z,59.60
2022-11-25T20:34:48.335Z,59.70
2022-11-25T20:36:50.225Z,59.70
2022-11-25T20:38:53.004Z,59.60
2022-11-25T20:40:56.494Z,59.70
2022-11-25T20:42:58.369Z,59.60
2022-11-25T20:45:00.083Z,59.60
2022-11-25T20:47:01.921Z,59.50
2022-11-25T20:49:13.935Z,59.50
2022-11-25T20:51:16.584Z,59.50
2022-11-25T20:53:19.333Z,59.60
2022-11-25T20:55:25.022Z,59.60
2022-11-25T20:57:26.779Z,59.50
2022-11-25T20:59:28.592Z,59.50
2022-11-25T21:01:30.455Z,59.50
2022-11-25T21:03:32.402Z,59.50
2022-11-25T21:05:34.196Z,59.50
2022-11-25T21:07:36.071Z,59.50
2022-11-25T21:09:37.825Z,59.40
2022-11-25T21:11:39.608Z,59.50
2022-11-25T21:13:41.387Z,59.50
2022-11-25T21:15:43.348Z,59.50
2022-11-25T21:17:45.071Z,59.40
2022-11-25T21:19:46.919Z,59.40
2022-11-25T21:21:49.516Z,59.40
2022-11-25T21:23:51.636Z,59.50
2022-11-25T21:25:54.110Z,59.00
2022-11-25T21:27:56.234Z,59.20
2022-11-25T21:29:58.247Z,58.60
2022-11-25T21:32:00.397Z,58.80
2022-11-25T21:34:02.515Z,58.90
2022-11-25T21:36:04.907Z,59.00
2022-11-25T21:38:14.815Z,58.90
2022-11-25T21:40:34.681Z,59.10
2022-11-25T21:42:36.840Z,59.40
2022-11-25T21:44:40.653Z,59.10
2022-11-25T21:46:42.802Z,59.30
2022-11-25T21:48:45.161Z,58.70
2022-11-25T21:50:47.289Z,58.90
2022-11-25T21:52:57.474Z,59.00
2022-11-25T21:54:59.317Z,59.40
2022-11-25T21:57:01.490Z,58.90
2022-11-25T21:59:05.392Z,58.70
2022-11-25T22:01:09.489Z,59.20
2022-11-25T22:03:15.386Z,59.10
2022-11-25T22:05:19.794Z,59.00
2022-11-25T22:07:25.172Z,59.10
2022-11-25T22:09:31.849Z,58.90
2022-11-25T22:11:37.971Z,59.00
2022-11-25T22:13:41.454Z,59.00
2022-11-25T22:15:44.346Z,59.00
2022-11-25T22:17:47.452Z,59.10
2022-11-25T22:19:50.037Z,58.80
2022-11-25T22:21:56.229Z,58.80
2022-11-25T22:23:59.197Z,59.00
2022-11-25T22:26:04.809Z,58.70
2022-11-25T22:28:07.489Z,59.00
2022-11-25T22:30:20.015Z,58.70
2022-11-25T22:32:30.920Z,59.10
2022-11-25T22:34:33.445Z,58.80
2022-11-25T22:36:37.356Z,58.80
2022-11-25T22:38:39.981Z,58.90
2022-11-25T22:40:53.842Z,58.60
2022-11-25T22:43:03.206Z,59.10
2022-11-25T22:45:09.132Z,59.00
2022-11-25T22:47:25.940Z,59.00
2022-11-25T22:49:41.085Z,59.00
2022-11-25T22:51:49.945Z,59.10
2022-11-25T22:53:56.493Z,59.10
2022-11-25T22:55:59.884Z,58.70
2022-11-25T22:58:03.133Z,58.60
2022-11-25T23:00:17.986Z,58.60
2022-11-25T23:02:30.188Z,59.10
2022-11-25T23:04:38.127Z,59.10
2022-11-25T23:06:41.664Z,58.80
2022-11-25T23:08:49.362Z,58.60
2022-11-25T23:10:53.590Z,58.90
2022-11-25T23:12:56.501Z,58.70
2022-11-25T23:15:00.701Z,58.80
2022-11-25T23:17:19.561Z,58.40
2022-11-25T23:19:23.106Z,59.00
2022-11-25T23:21:35.161Z,58.40
2022-11-25T23:23:38.544Z,58.90
2022-11-25T23:25:41.339Z,58.60
2022-11-25T23:27:45.961Z,59.20
2022-11-25T23:29:49.623Z,58.70
2022-11-25T23:32:03.999Z,58.20
2022-11-25T23:34:08.473Z,58.80
2022-11-25T23:36:32.719Z,58.60
2022-11-25T23:38:39.053Z,58.80
2022-11-25T23:40:42.754Z,58.60
2022-11-25T23:42:53.170Z,58.40
2022-11-25T23:44:57.009Z,58.80
2022-11-25T23:47:04.434Z,58.30
2022-11-25T23:49:07.680Z,58.80
2022-11-25T23:51:18.229Z,58.60
2022-11-25T23:53:28.705Z,58.70
2022-11-25T23:55:40.595Z,58.70
2022-11-25T23:57:44.771Z,58.70
2022-11-25T23:59:48.166Z,58.50
